createdAt,value
2019-06-10T00:00:51.173Z,91.67
2019-06-10T00:01:51.518Z,92.15
2019-06-10T00:02:51.131Z,91.59
2019-06-10T00:03:51.775Z,91.71
2019-06-10T00:04:51.133Z,92.58
2019-06-10T00:05:51.757Z,92.43
2019-06-10T00:06:51.146Z,92.04
2019-06-10T00:07:51.620Z,91.84
2019-06-10T00:08:51.170Z,91.79
2019-06-10T00:09:51.275Z,92.51
2019-06-10T00:10:51.277Z,92.63
2019-06-10T00:11:51.604Z,91.98
2019-06-10T00:12:52.425Z,92.18
2019-06-10T00:13:51.146Z,92.81
2019-06-10T00:14:51.165Z,92.39
2019-06-10T00:15:51.646Z,93.12
2019-06-10T00:16:51.179Z,93.46
2019-06-10T00:18:07.052Z,92.76
2019-06-10T00:18:51.210Z,93.04
2019-06-10T00:19:51.263Z,93.01
2019-06-10T00:20:51.397Z,93.08
2019-06-10T00:21:51.158Z,93.11
2019-06-10T00:22:51.578Z,93.24
2019-06-10T00:23:51.786Z,93.78
2019-06-10T00:24:52.193Z,93.97
2019-06-10T00:25:51.696Z,93.80
2019-06-10T00:26:51.307Z,93.87
2019-06-10T00:27:51.299Z,93.29
2019-06-10T00:28:51.486Z,93.88
2019-06-10T00:29:51.380Z,93.08
2019-06-10T00:30:51.681Z,93.10
2019-06-10T00:31:51.178Z,93.29
2019-06-10T00:32:51.560Z,93.47
2019-06-10T00:33:51.988Z,93.75
2019-06-10T00:34:51.201Z,93.59
2019-06-10T00:35:51.601Z,93.97
2019-06-10T00:36:51.196Z,93.90
2019-06-10T00:37:51.319Z,93.25
2019-06-10T00:38:51.689Z,93.44
2019-06-10T00:39:51.306Z,93.11
2019-06-10T00:40:51.448Z,93.39
2019-06-10T00:41:52.166Z,93.16
2019-06-10T00:42:51.184Z,93.87
2019-06-10T00:43:51.669Z,93.81
2019-06-10T00:44:51.219Z,93.24
2019-06-10T00:45:51.458Z,93.58
2019-06-10T00:46:51.797Z,92.93
2019-06-10T00:48:04.454Z,92.87
2019-06-10T00:48:51.213Z,92.99
2019-06-10T00:49:51.581Z,93.54
2019-06-10T00:50:51.814Z,93.39
2019-06-10T00:51:51.241Z,92.72
2019-06-10T00:52:51.747Z,93.41
2019-06-10T00:53:51.530Z,92.67
2019-06-10T00:54:51.870Z,92.60
2019-06-10T00:55:51.677Z,92.75
2019-06-10T00:56:51.876Z,92.56
2019-06-10T00:57:51.231Z,92.66
2019-06-10T00:58:51.546Z,92.86
2019-06-10T00:59:51.188Z,92.88
2019-06-10T01:00:51.794Z,93.32
2019-06-10T01:01:51.418Z,93.34
2019-06-10T01:02:51.850Z,92.78
2019-06-10T01:03:51.249Z,93.37
2019-06-10T01:04:51.467Z,93.35
2019-06-10T01:05:51.228Z,93.81
2019-06-10T01:06:51.513Z,93.22
2019-06-10T01:07:51.219Z,93.20
2019-06-10T01:08:51.390Z,93.34
2019-06-10T01:09:51.744Z,93.89
2019-06-10T01:10:52.218Z,93.24
2019-06-10T01:11:51.856Z,93.90
2019-06-10T01:12:51.400Z,93.43
2019-06-10T01:13:51.211Z,94.12
2019-06-10T01:14:51.645Z,93.71
2019-06-10T01:15:51.310Z,93.25
2019-06-10T01:16:51.276Z,93.22
2019-06-10T01:17:51.256Z,93.14
2019-06-10T01:18:53.616Z,93.92
2019-06-10T01:19:51.252Z,93.17
2019-06-10T01:20:51.712Z,93.21
2019-06-10T01:21:51.404Z,93.38
2019-06-10T01:22:51.692Z,94.13
2019-06-10T01:23:51.245Z,94.06
2019-06-10T01:24:51.250Z,93.10
2019-06-10T01:25:51.261Z,93.16
2019-06-10T01:26:51.246Z,93.67
2019-06-10T01:27:51.635Z,93.78
2019-06-10T01:28:51.755Z,93.68
2019-06-10T01:29:51.260Z,93.10
2019-06-10T01:30:51.809Z,92.63
2019-06-10T01:31:51.449Z,93.13
2019-06-10T01:32:51.268Z,92.96
2019-06-10T01:33:51.427Z,92.35
2019-06-10T01:34:51.282Z,92.47
2019-06-10T01:35:51.561Z,92.74
2019-06-10T01:36:51.260Z,92.39
2019-06-10T01:37:52.020Z,92.77
2019-06-10T01:38:51.396Z,93.33
2019-06-10T01:39:51.559Z,92.70
2019-06-10T01:40:51.256Z,92.79
2019-06-10T01:41:51.389Z,93.31
2019-06-10T01:42:51.291Z,93.35
2019-06-10T01:43:51.526Z,92.94
2019-06-10T01:44:51.272Z,92.96
2019-06-10T01:45:51.291Z,92.90
2019-06-10T01:46:51.706Z,93.72
2019-06-10T01:47:51.651Z,93.94
2019-06-10T01:48:52.207Z,93.20
2019-06-10T01:49:51.786Z,93.26
2019-06-10T01:50:51.464Z,94.01
2019-06-10T01:51:51.689Z,93.40
2019-06-10T01:52:51.687Z,94.05
2019-06-10T01:53:51.639Z,94.07
2019-06-10T01:54:51.700Z,94.25
2019-06-10T01:55:52.008Z,93.71
2019-06-10T01:56:51.385Z,94.37
2019-06-10T01:57:51.849Z,95.08
2019-06-10T01:58:51.605Z,94.85
2019-06-10T01:59:51.452Z,96.11
2019-06-10T02:00:51.451Z,95.52
2019-06-10T02:01:51.817Z,95.82
2019-06-10T02:02:52.397Z,96.50
2019-06-10T02:03:51.965Z,96.84
2019-06-10T02:04:51.847Z,96.03
2019-06-10T02:05:51.772Z,96.66
2019-06-10T02:06:51.525Z,96.05
2019-06-10T02:07:51.674Z,96.76
2019-06-10T02:08:51.553Z,97.07
2019-06-10T02:09:51.854Z,96.93
2019-06-10T02:10:51.540Z,96.31
2019-06-10T02:11:51.583Z,97.01
2019-06-10T02:12:51.571Z,97.07
2019-06-10T02:13:51.672Z,96.47
2019-06-10T02:14:51.613Z,97.07
2019-06-10T02:15:51.619Z,96.27
2019-06-10T02:16:51.671Z,96.94
2019-06-10T02:17:51.626Z,97.16
2019-06-10T02:19:00.101Z,96.84
2019-06-10T02:19:51.683Z,96.93
2019-06-10T02:20:51.686Z,97.18
2019-06-10T02:21:51.683Z,96.69
2019-06-10T02:22:51.710Z,96.33
2019-06-10T02:23:52.185Z,97.19
2019-06-10T02:24:51.714Z,96.97
2019-06-10T02:25:51.687Z,96.39
2019-06-10T02:26:51.738Z,96.78
2019-06-10T02:27:51.689Z,96.92
2019-06-10T02:28:51.728Z,96.39
2019-06-10T02:29:51.716Z,97.09
2019-06-10T02:30:55.379Z,97.12
2019-06-10T02:31:52.296Z,96.34
2019-06-10T02:32:52.345Z,97.09
2019-06-10T02:33:52.561Z,97.15
2019-06-10T02:35:03.729Z,97.02
2019-06-10T02:35:53.879Z,96.74
2019-06-10T02:36:53.727Z,96.34
2019-06-10T02:37:53.947Z,96.95
2019-06-10T02:38:53.988Z,96.26
2019-06-10T02:39:54.170Z,95.98
2019-06-10T02:40:53.894Z,96.10
2019-06-10T02:41:53.535Z,96.57
2019-06-10T02:42:53.952Z,96.91
2019-06-10T02:43:53.396Z,96.26
2019-06-10T02:44:54.043Z,96.19
2019-06-10T02:45:53.062Z,96.77
2019-06-10T02:46:54.486Z,96.31
2019-06-10T02:47:53.333Z,96.65
2019-06-10T02:48:54.500Z,96.70
2019-06-10T02:49:57.708Z,96.83
2019-06-10T02:50:53.857Z,96.73
2019-06-10T02:51:53.795Z,96.17
2019-06-10T02:52:53.085Z,96.01
2019-06-10T02:53:53.803Z,95.99
2019-06-10T02:54:53.668Z,96.93
2019-06-10T02:55:53.801Z,96.23
2019-06-10T02:56:53.722Z,96.06
2019-06-10T02:57:53.285Z,96.67
2019-06-10T02:58:53.469Z,96.38
2019-06-10T02:59:54.422Z,96.25
2019-06-10T03:00:54.667Z,96.25
2019-06-10T03:01:53.622Z,97.24
2019-06-10T03:02:53.071Z,96.67
2019-06-10T03:03:54.252Z,97.26
2019-06-10T03:04:53.553Z,96.96
2019-06-10T03:05:53.699Z,96.22
2019-06-10T03:06:54.310Z,96.88
2019-06-10T03:07:53.244Z,96.88
2019-06-10T03:08:55.042Z,96.78
2019-06-10T03:09:53.773Z,96.80
2019-06-10T03:10:54.657Z,96.76
2019-06-10T03:11:53.507Z,96.28
2019-06-10T03:12:52.777Z,96.92
2019-06-10T03:13:53.142Z,96.97
2019-06-10T03:14:52.605Z,96.16
2019-06-10T03:15:52.297Z,96.16
2019-06-10T03:16:52.735Z,96.24
2019-06-10T03:17:52.226Z,96.50
2019-06-10T03:18:52.543Z,97.11
2019-06-10T03:19:53.575Z,96.49
2019-06-10T03:20:52.884Z,97.15
2019-06-10T03:21:52.214Z,97.33
2019-06-10T03:22:52.495Z,96.64
2019-06-10T03:23:53.114Z,97.18
2019-06-10T03:24:52.374Z,96.62
2019-06-10T03:25:52.738Z,96.61
2019-06-10T03:26:52.210Z,96.93
2019-06-10T03:27:52.494Z,97.04
2019-06-10T03:28:52.064Z,96.33
2019-06-10T03:29:52.672Z,96.36
2019-06-10T03:30:55.266Z,96.32
2019-06-10T03:31:55.161Z,96.19
2019-06-10T03:32:55.356Z,97.02
2019-06-10T03:33:54.392Z,96.67
2019-06-10T03:34:54.801Z,96.18
2019-06-10T03:35:52.656Z,96.91
2019-06-10T03:36:53.526Z,96.58
2019-06-10T03:37:52.774Z,96.86
2019-06-10T03:38:53.692Z,96.78
2019-06-10T03:39:53.080Z,96.37
2019-06-10T03:40:52.441Z,96.22
2019-06-10T03:41:52.769Z,96.22
2019-06-10T03:42:52.087Z,95.85
2019-06-10T03:43:53.083Z,96.20
2019-06-10T03:44:52.585Z,96.69
2019-06-10T03:45:53.076Z,96.11
2019-06-10T03:46:52.366Z,96.86
2019-06-10T03:47:52.724Z,96.47
2019-06-10T03:48:52.604Z,96.69
2019-06-10T03:49:52.763Z,96.45
2019-06-10T03:50:52.446Z,96.28
2019-06-10T03:51:52.973Z,97.13
2019-06-10T03:52:52.463Z,97.00
2019-06-10T03:53:53.079Z,97.12
2019-06-10T03:54:52.498Z,96.26
2019-06-10T03:55:52.602Z,96.06
2019-06-10T03:56:52.142Z,97.01
2019-06-10T03:57:52.633Z,96.89
2019-06-10T03:58:52.141Z,96.09
2019-06-10T03:59:52.806Z,96.28
2019-06-10T04:00:52.332Z,96.19
2019-06-10T04:01:52.951Z,96.85
2019-06-10T04:02:53.177Z,96.83
2019-06-10T04:03:52.943Z,96.38
2019-06-10T04:04:52.346Z,96.76
2019-06-10T04:05:52.733Z,96.76
2019-06-10T04:06:53.150Z,96.12
2019-06-10T04:07:52.686Z,97.02
2019-06-10T04:08:52.323Z,96.18
2019-06-10T04:09:52.614Z,96.78
2019-06-10T04:10:52.153Z,96.34
2019-06-10T04:11:53.252Z,96.34
2019-06-10T04:12:52.393Z,96.92
2019-06-10T04:13:53.552Z,97.23
2019-06-10T04:14:52.204Z,97.21
2019-06-10T04:15:53.446Z,96.32
2019-06-10T04:16:52.560Z,96.32
2019-06-10T04:17:53.104Z,95.92
2019-06-10T04:18:53.429Z,96.22
2019-06-10T04:20:07.589Z,95.14
2019-06-10T04:20:52.866Z,94.88
2019-06-10T04:21:53.217Z,95.63
2019-06-10T04:22:52.372Z,94.96
2019-06-10T04:23:52.841Z,95.71
2019-06-10T04:24:52.102Z,96.22
2019-06-10T04:25:52.655Z,95.46
2019-06-10T04:26:52.177Z,95.59
2019-06-10T04:27:52.435Z,95.58
2019-06-10T04:28:52.977Z,96.47
2019-06-10T04:29:52.396Z,96.03
2019-06-10T04:30:53.568Z,95.84
2019-06-10T04:31:52.418Z,96.32
2019-06-10T04:32:52.921Z,96.58
2019-06-10T04:33:52.453Z,96.62
2019-06-10T04:34:52.961Z,95.69
2019-06-10T04:35:52.053Z,96.14
2019-06-10T04:36:52.558Z,95.30
2019-06-10T04:37:52.088Z,95.67
2019-06-10T04:38:52.555Z,94.89
2019-06-10T04:39:53.009Z,94.83
2019-06-10T04:40:52.548Z,94.90
2019-06-10T04:41:53.052Z,94.97
2019-06-10T04:42:52.538Z,95.24
2019-06-10T04:43:53.151Z,95.52
2019-06-10T04:44:52.558Z,95.78
2019-06-10T04:45:52.781Z,95.54
2019-06-10T04:46:52.128Z,94.95
2019-06-10T04:47:52.504Z,94.73
2019-06-10T04:48:53.290Z,94.58
2019-06-10T04:49:52.305Z,95.16
2019-06-10T04:50:53.341Z,94.74
2019-06-10T04:51:52.404Z,94.85
2019-06-10T04:52:52.863Z,94.10
2019-06-10T04:53:52.537Z,93.88
2019-06-10T04:54:52.723Z,94.86
2019-06-10T04:55:52.294Z,94.60
2019-06-10T04:56:52.916Z,95.10
2019-06-10T04:57:52.192Z,94.54
2019-06-10T04:58:52.611Z,94.62
2019-06-10T04:59:52.972Z,94.55
2019-06-10T05:00:52.431Z,94.37
2019-06-10T05:01:53.014Z,94.45
2019-06-10T05:02:52.295Z,94.39
2019-06-10T05:03:52.686Z,95.08
2019-06-10T05:04:53.204Z,94.88
2019-06-10T05:05:52.558Z,94.63
2019-06-10T05:06:52.692Z,94.56
2019-06-10T05:07:52.093Z,94.40
2019-06-10T05:08:53.791Z,93.85
2019-06-10T05:09:52.502Z,93.88
2019-06-10T05:10:52.947Z,94.11
2019-06-10T05:11:52.309Z,94.05
2019-06-10T05:12:52.570Z,94.52
2019-06-10T05:13:53.295Z,95.02
2019-06-10T05:14:52.659Z,95.00
2019-06-10T05:15:52.691Z,94.60
2019-06-10T05:16:54.179Z,95.19
2019-06-10T05:17:52.724Z,94.92
2019-06-10T05:18:54.722Z,94.72
2019-06-10T05:19:53.098Z,93.61
2019-06-10T05:20:58.211Z,93.41
2019-06-10T05:21:52.421Z,93.17
2019-06-10T05:22:52.840Z,92.97
2019-06-10T05:23:52.228Z,93.14
2019-06-10T05:24:52.729Z,92.83
2019-06-10T05:25:52.784Z,91.85
2019-06-10T05:26:52.687Z,91.25
2019-06-10T05:27:52.305Z,91.46
2019-06-10T05:28:52.446Z,91.99
2019-06-10T05:29:52.754Z,92.02
2019-06-10T05:30:53.167Z,90.40
2019-06-10T05:31:52.318Z,91.05
2019-06-10T05:32:52.425Z,90.86
2019-06-10T05:33:53.093Z,89.30
2019-06-10T05:34:52.821Z,89.23
2019-06-10T05:35:52.967Z,89.54
2019-06-10T05:36:52.553Z,90.02
2019-06-10T05:37:52.767Z,91.50
2019-06-10T05:38:52.636Z,91.68
2019-06-10T05:39:52.682Z,91.40
2019-06-10T05:40:52.184Z,91.90
2019-06-10T05:41:53.101Z,91.43
2019-06-10T05:42:52.865Z,91.28
2019-06-10T05:43:52.447Z,91.66
2019-06-10T05:44:52.475Z,91.33
2019-06-10T05:45:53.019Z,92.08
2019-06-10T05:46:52.840Z,92.96
2019-06-10T05:47:53.083Z,91.36
2019-06-10T05:48:52.613Z,89.51
2019-06-10T05:49:52.942Z,90.71
2019-06-10T05:51:02.689Z,90.21
2019-06-10T05:51:52.696Z,90.83
2019-06-10T05:52:52.145Z,90.90
2019-06-10T05:53:52.742Z,89.65
2019-06-10T05:54:52.278Z,89.51
2019-06-10T05:55:52.961Z,90.80
2019-06-10T05:56:52.241Z,90.57
2019-06-10T05:57:53.251Z,89.94
2019-06-10T05:58:52.506Z,85.63
2019-06-10T05:59:52.350Z,88.15
2019-06-10T06:00:53.178Z,88.80
2019-06-10T06:01:53.869Z,88.65
2019-06-10T06:02:52.358Z,86.79
2019-06-10T06:03:52.934Z,87.67
2019-06-10T06:04:53.053Z,88.98
2019-06-10T06:05:52.557Z,86.49
2019-06-10T06:06:53.154Z,86.85
2019-06-10T06:08:02.254Z,86.77
2019-06-10T06:08:53.427Z,86.48
2019-06-10T06:09:53.268Z,86.41
2019-06-10T06:10:52.731Z,86.15
2019-06-10T06:11:52.450Z,86.81
2019-06-10T06:12:52.668Z,85.86
2019-06-10T06:13:52.323Z,86.12
2019-06-10T06:14:52.774Z,86.55
2019-06-10T06:15:52.737Z,86.20
2019-06-10T06:16:53.363Z,86.40
2019-06-10T06:18:06.550Z,85.64
2019-06-10T06:18:52.735Z,86.77
2019-06-10T06:19:53.488Z,88.03
2019-06-10T06:20:52.651Z,88.33
2019-06-10T06:21:53.056Z,87.15
2019-06-10T06:22:52.343Z,87.37
2019-06-10T06:23:52.847Z,86.94
2019-06-10T06:24:52.349Z,88.58
2019-06-10T06:25:53.207Z,86.60
2019-06-10T06:26:53.410Z,87.61
2019-06-10T06:27:52.475Z,89.11
2019-06-10T06:28:53.513Z,89.66
2019-06-10T06:29:52.553Z,89.11
2019-06-10T06:30:52.806Z,88.20
2019-06-10T06:31:52.459Z,86.82
2019-06-10T06:32:53.273Z,87.11
2019-06-10T06:33:52.748Z,88.87
2019-06-10T06:34:52.695Z,89.35
2019-06-10T06:35:52.490Z,89.12
2019-06-10T06:36:52.834Z,89.32
2019-06-10T06:37:54.087Z,90.07
2019-06-10T06:38:53.096Z,89.83
2019-06-10T06:39:52.430Z,88.42
2019-06-10T06:40:53.773Z,86.05
2019-06-10T06:41:52.829Z,88.04
2019-06-10T06:42:52.596Z,89.61
2019-06-10T06:43:53.174Z,90.03
2019-06-10T06:44:52.542Z,89.55
2019-06-10T06:45:53.118Z,89.64
2019-06-10T06:46:53.251Z,89.48
2019-06-10T06:47:52.652Z,89.85
2019-06-10T06:48:53.323Z,88.42
2019-06-10T06:49:53.159Z,87.12
2019-06-10T06:51:04.079Z,87.35
2019-06-10T06:51:56.180Z,88.40
2019-06-10T06:53:18.773Z,88.47
2019-06-10T06:53:55.909Z,83.71
2019-06-10T06:54:53.020Z,86.41
2019-06-10T06:55:55.789Z,87.61
2019-06-10T06:56:53.440Z,86.56
2019-06-10T06:57:52.866Z,82.88
2019-06-10T06:58:52.568Z,84.43
2019-06-10T06:59:52.602Z,86.97
2019-06-10T07:01:03.760Z,86.75
2019-06-10T07:01:52.593Z,84.52
2019-06-10T07:02:52.931Z,84.92
2019-06-10T07:03:53.540Z,84.46
2019-06-10T07:04:52.575Z,85.43
2019-06-10T07:05:52.965Z,86.79
2019-06-10T07:06:55.451Z,85.65
2019-06-10T07:07:52.722Z,86.70
2019-06-10T07:09:52.617Z,86.28
2019-06-10T07:10:52.324Z,86.25
2019-06-10T07:11:52.970Z,82.89
2019-06-10T07:12:52.365Z,84.54
2019-06-10T07:13:53.493Z,85.50
2019-06-10T07:14:52.625Z,86.30
2019-06-10T07:15:53.458Z,86.97
2019-06-10T07:16:52.952Z,87.40
2019-06-10T07:17:52.669Z,86.77
2019-06-10T07:18:54.027Z,87.68
2019-06-10T07:19:52.943Z,87.96
2019-06-10T07:20:54.103Z,85.60
2019-06-10T07:22:08.774Z,86.45
2019-06-10T07:22:53.289Z,87.01
2019-06-10T07:23:53.631Z,86.20
2019-06-10T07:24:53.724Z,87.22
2019-06-10T07:25:53.178Z,87.77
2019-06-10T07:26:55.025Z,86.70
2019-06-10T07:27:53.687Z,87.56
2019-06-10T07:28:53.726Z,86.93
2019-06-10T07:29:52.982Z,87.96
2019-06-10T07:30:55.123Z,88.52
2019-06-10T07:31:53.584Z,88.82
2019-06-10T07:32:52.839Z,89.50
2019-06-10T07:33:52.722Z,88.66
2019-06-10T07:34:52.552Z,88.58
2019-06-10T07:35:52.838Z,89.23
2019-06-10T07:36:52.330Z,89.37
2019-06-10T07:37:52.438Z,89.54
2019-06-10T07:38:53.852Z,89.88
2019-06-10T07:39:52.408Z,89.92
2019-06-10T07:40:53.044Z,90.32
2019-06-10T07:41:52.935Z,90.90
2019-06-10T07:42:53.073Z,90.83
2019-06-10T07:43:52.837Z,90.88
2019-06-10T07:44:53.189Z,90.75
2019-06-10T07:45:53.443Z,90.76
2019-06-10T07:46:52.993Z,91.03
2019-06-10T07:47:52.353Z,90.48
2019-06-10T07:48:56.270Z,91.25
2019-06-10T07:49:52.369Z,91.12
2019-06-10T07:50:53.181Z,91.10
2019-06-10T07:51:52.391Z,91.54
2019-06-10T07:52:52.901Z,91.85
2019-06-10T07:53:52.801Z,91.78
2019-06-10T07:54:52.985Z,92.06
2019-06-10T07:55:53.544Z,91.41
2019-06-10T07:56:53.770Z,90.75
2019-06-10T07:57:53.074Z,91.59
2019-06-10T07:58:52.829Z,92.15
2019-06-10T07:59:52.421Z,92.63
2019-06-10T08:00:53.444Z,92.85
2019-06-10T08:01:55.019Z,92.79
2019-06-10T08:02:52.977Z,92.96
2019-06-10T08:03:52.840Z,93.11
2019-06-10T08:04:54.324Z,93.50
2019-06-10T08:05:52.665Z,93.67
2019-06-10T08:06:53.017Z,93.99
2019-06-10T08:07:54.780Z,93.75
2019-06-10T08:08:53.176Z,94.02
2019-06-10T08:09:53.330Z,94.22
2019-06-10T08:10:52.970Z,94.15
2019-06-10T08:11:53.251Z,94.30
2019-06-10T08:12:52.523Z,94.09
2019-06-10T08:13:53.933Z,93.82
2019-06-10T08:14:53.249Z,94.23
2019-06-10T08:15:53.254Z,94.17
2019-06-10T08:16:53.207Z,93.91
2019-06-10T08:17:53.118Z,93.48
2019-06-10T08:19:20.013Z,93.43
2019-06-10T08:19:54.236Z,93.34
2019-06-10T08:20:52.778Z,93.21
2019-06-10T08:21:53.707Z,93.31
2019-06-10T08:22:55.175Z,93.71
2019-06-10T08:23:54.281Z,93.56
2019-06-10T08:24:52.478Z,93.27
2019-06-10T08:25:54.560Z,93.39
2019-06-10T08:26:53.074Z,93.16
2019-06-10T08:27:53.060Z,93.32
2019-06-10T08:28:53.027Z,93.82
2019-06-10T08:30:13.087Z,93.90
2019-06-10T08:30:53.185Z,93.96
2019-06-10T08:31:53.209Z,94.29
2019-06-10T08:32:56.023Z,94.60
2019-06-10T08:33:53.344Z,94.53
2019-06-10T08:34:53.021Z,94.93
2019-06-10T08:35:57.348Z,94.71
2019-06-10T08:36:54.422Z,95.25
2019-06-10T08:37:52.973Z,94.89
2019-06-10T08:38:52.817Z,94.69
2019-06-10T08:39:53.074Z,94.51
2019-06-10T08:40:52.522Z,94.91
2019-06-10T08:41:52.844Z,94.77
2019-06-10T08:42:53.731Z,94.72
2019-06-10T08:43:52.984Z,94.05
2019-06-10T08:44:53.450Z,94.25
2019-06-10T08:45:52.903Z,93.96
2019-06-10T08:46:52.555Z,94.04
2019-06-10T08:47:54.223Z,93.59
2019-06-10T08:48:52.658Z,92.80
2019-06-10T08:49:53.077Z,92.33
2019-06-10T08:50:53.270Z,92.97
2019-06-10T08:51:53.394Z,92.97
2019-06-10T08:53:05.678Z,93.37
2019-06-10T08:53:53.199Z,93.01
2019-06-10T08:54:54.446Z,92.38
2019-06-10T08:55:53.785Z,91.71
2019-06-10T08:56:54.003Z,92.17
2019-06-10T08:57:54.001Z,92.32
2019-06-10T08:58:54.089Z,91.95
2019-06-10T08:59:53.345Z,91.24
2019-06-10T09:00:53.522Z,90.60
2019-06-10T09:01:56.878Z,90.35
2019-06-10T09:02:53.941Z,89.71
2019-06-10T09:03:53.710Z,87.03
2019-06-10T09:04:53.514Z,87.59
2019-06-10T09:05:54.538Z,88.05
2019-06-10T09:06:53.741Z,88.72
2019-06-10T09:07:54.397Z,88.70
2019-06-10T09:08:54.434Z,89.06
2019-06-10T09:09:53.980Z,88.28
2019-06-10T09:10:54.961Z,87.68
2019-06-10T09:11:54.542Z,87.93
2019-06-10T09:12:54.715Z,85.44
2019-06-10T09:13:53.188Z,86.00
2019-06-10T09:14:53.194Z,85.74
2019-06-10T09:16:10.167Z,87.13
2019-06-10T09:16:54.395Z,85.93
2019-06-10T09:17:55.986Z,84.89
2019-06-10T09:18:55.107Z,86.02
2019-06-10T09:19:54.253Z,85.85
2019-06-10T09:20:55.287Z,83.92
2019-06-10T09:21:55.871Z,85.84
2019-06-10T09:23:13.767Z,86.40
2019-06-10T09:23:59.446Z,85.70
2019-06-10T09:24:55.969Z,85.44
2019-06-10T09:25:56.468Z,86.99
2019-06-10T09:26:54.831Z,87.25
2019-06-10T09:27:54.637Z,85.50
2019-06-10T09:28:53.806Z,87.08
2019-06-10T09:29:55.236Z,86.07
2019-06-10T09:30:57.924Z,86.06
2019-06-10T09:31:55.464Z,84.53
2019-06-10T09:32:56.235Z,83.19
2019-06-10T09:33:56.252Z,83.27
2019-06-10T09:34:56.648Z,81.93
2019-06-10T09:35:54.980Z,77.62
2019-06-10T09:36:56.691Z,78.24
2019-06-10T09:37:55.672Z,80.99
2019-06-10T09:38:54.927Z,80.25
2019-06-10T09:39:58.971Z,79.73
2019-06-10T09:41:00.858Z,79.01
2019-06-10T09:42:01.146Z,82.11
2019-06-10T09:42:55.035Z,80.28
2019-06-10T09:43:56.743Z,79.81
2019-06-10T09:44:55.376Z,77.57
2019-06-10T09:45:56.279Z,82.28
2019-06-10T09:46:55.807Z,80.27
2019-06-10T09:47:58.831Z,77.07
2019-06-10T09:48:55.745Z,79.84
2019-06-10T09:49:55.528Z,78.61
2019-06-10T09:50:57.622Z,79.22
2019-06-10T09:51:57.024Z,75.75
2019-06-10T09:52:56.859Z,78.46
2019-06-10T09:54:02.082Z,78.05
2019-06-10T09:54:56.377Z,78.38
2019-06-10T09:55:55.423Z,78.28
2019-06-10T09:56:54.699Z,75.72
2019-06-10T09:57:59.621Z,79.71
2019-06-10T09:58:55.095Z,78.87
2019-06-10T09:59:56.126Z,78.29
2019-06-10T10:00:56.755Z,74.29
2019-06-10T10:01:58.747Z,77.47
2019-06-10T10:02:56.014Z,80.55
2019-06-10T10:03:59.349Z,79.36
2019-06-10T10:04:57.762Z,76.58
2019-06-10T10:05:55.962Z,80.16
2019-06-10T10:06:57.063Z,79.96
2019-06-10T10:07:57.041Z,81.15
2019-06-10T10:08:57.528Z,76.31
2019-06-10T10:09:56.867Z,77.96
2019-06-10T10:10:58.410Z,79.79
2019-06-10T10:11:55.913Z,78.63
2019-06-10T10:12:55.737Z,76.25
2019-06-10T10:13:52.720Z,76.61
2019-06-10T10:14:56.032Z,75.79
2019-06-10T10:15:54.223Z,72.17
2019-06-10T10:16:58.854Z,72.02
2019-06-10T10:17:56.301Z,73.06
2019-06-10T10:18:59.737Z,78.13
2019-06-10T10:19:56.741Z,77.87
2019-06-10T10:20:58.789Z,76.11
2019-06-10T10:21:57.163Z,69.66
2019-06-10T10:22:55.163Z,73.43
2019-06-10T10:24:04.365Z,70.54
2019-06-10T10:24:55.262Z,69.44
2019-06-10T10:25:56.396Z,69.39
2019-06-10T10:26:57.172Z,71.61
2019-06-10T10:27:57.137Z,66.83
2019-06-10T10:28:56.836Z,71.05
2019-06-10T10:29:56.966Z,69.73
2019-06-10T10:30:55.320Z,71.25
2019-06-10T10:31:53.993Z,71.60
2019-06-10T10:32:53.953Z,75.79
2019-06-10T10:33:52.720Z,73.91
2019-06-10T10:34:56.150Z,71.27
2019-06-10T10:35:52.729Z,73.44
2019-06-10T10:36:57.018Z,71.00
2019-06-10T10:37:54.309Z,66.14
2019-06-10T10:38:53.510Z,67.10
2019-06-10T10:39:54.484Z,70.32
2019-06-10T10:40:58.350Z,68.88
2019-06-10T10:41:56.615Z,74.30
2019-06-10T10:43:01.790Z,68.36
2019-06-10T10:43:56.564Z,68.89
2019-06-10T10:44:57.499Z,71.10
2019-06-10T10:45:57.470Z,70.16
2019-06-10T10:46:54.385Z,67.66
2019-06-10T10:47:56.379Z,64.38
2019-06-10T10:48:55.199Z,73.42
2019-06-10T10:49:56.568Z,68.22
2019-06-10T10:50:55.825Z,65.47
2019-06-10T10:51:53.567Z,68.85
2019-06-10T10:52:53.865Z,67.51
2019-06-10T10:54:20.183Z,65.93
2019-06-10T10:54:54.307Z,68.47
2019-06-10T10:55:53.522Z,67.57
2019-06-10T10:56:58.365Z,62.72
2019-06-10T10:57:54.659Z,66.03
2019-06-10T10:58:55.887Z,69.98
2019-06-10T10:59:54.529Z,68.66
2019-06-10T11:00:56.253Z,66.21
2019-06-10T11:01:53.632Z,68.06
2019-06-10T11:02:53.077Z,65.71
2019-06-10T11:03:58.181Z,69.38
2019-06-10T11:04:55.431Z,67.22
2019-06-10T11:06:00.085Z,66.07
2019-06-10T11:06:56.540Z,65.44
2019-06-10T11:07:55.197Z,69.16
2019-06-10T11:08:55.853Z,68.88
2019-06-10T11:09:55.190Z,69.56
2019-06-10T11:10:58.802Z,67.32
2019-06-10T11:11:54.887Z,65.12
2019-06-10T11:12:54.104Z,66.89
2019-06-10T11:13:56.617Z,70.80
2019-06-10T11:14:55.330Z,68.06
2019-06-10T11:15:55.353Z,69.11
2019-06-10T11:16:56.583Z,69.48
2019-06-10T11:17:55.128Z,64.53
2019-06-10T11:18:56.172Z,67.90
2019-06-10T11:19:54.317Z,70.01
2019-06-10T11:20:54.001Z,65.46
2019-06-10T11:21:53.579Z,71.09
2019-06-10T11:22:53.630Z,66.92
2019-06-10T11:23:56.359Z,67.67
2019-06-10T11:24:54.842Z,69.11
2019-06-10T11:25:55.241Z,68.51
2019-06-10T11:26:55.193Z,67.85
2019-06-10T11:27:53.997Z,66.29
2019-06-10T11:28:54.493Z,61.29
2019-06-10T11:29:53.660Z,62.84
2019-06-10T11:30:56.656Z,63.52
2019-06-10T11:31:55.130Z,65.46
2019-06-10T11:32:55.658Z,64.44
2019-06-10T11:33:56.125Z,61.89
2019-06-10T11:34:55.350Z,65.34
2019-06-10T11:35:55.077Z,61.45
2019-06-10T11:36:55.097Z,65.89
2019-06-10T11:37:54.034Z,63.48
2019-06-10T11:38:55.116Z,60.81
2019-06-10T11:39:52.610Z,64.35
2019-06-10T11:40:57.696Z,64.99
2019-06-10T11:41:53.265Z,60.05
2019-06-10T11:42:56.355Z,65.53
2019-06-10T11:43:55.049Z,58.95
2019-06-10T11:44:57.361Z,63.28
2019-06-10T11:45:58.876Z,64.56
2019-06-10T11:46:54.443Z,65.55
2019-06-10T11:47:54.954Z,63.12
2019-06-10T11:48:55.402Z,60.68
2019-06-10T11:49:54.982Z,60.60
2019-06-10T11:50:56.734Z,62.69
2019-06-10T11:51:54.280Z,62.00
2019-06-10T11:52:56.935Z,59.45
2019-06-10T11:53:54.361Z,62.92
2019-06-10T11:55:05.592Z,59.43
2019-06-10T11:55:53.795Z,58.77
2019-06-10T11:56:56.141Z,60.28
2019-06-10T11:57:54.957Z,60.14
2019-06-10T11:58:55.179Z,58.93
2019-06-10T11:59:53.327Z,59.03
2019-06-10T12:00:55.881Z,64.22
2019-06-10T12:01:55.958Z,61.19
2019-06-10T12:02:53.749Z,62.40
2019-06-10T12:03:54.063Z,61.84
2019-06-10T12:04:53.706Z,59.89
2019-06-10T12:05:55.542Z,64.69
2019-06-10T12:06:52.762Z,60.86
2019-06-10T12:07:56.333Z,62.95
2019-06-10T12:08:57.431Z,64.70
2019-06-10T12:09:55.229Z,65.49
2019-06-10T12:10:58.285Z,65.44
2019-06-10T12:11:54.762Z,65.18
2019-06-10T12:12:55.446Z,65.67
2019-06-10T12:13:57.737Z,65.30
2019-06-10T12:14:55.286Z,66.79
2019-06-10T12:16:32.782Z,64.91
2019-06-10T12:17:21.553Z,65.02
2019-06-10T12:18:01.804Z,62.06
2019-06-10T12:18:54.167Z,62.99
2019-06-10T12:19:56.476Z,66.25
2019-06-10T12:20:57.573Z,66.63
2019-06-10T12:21:55.680Z,66.05
2019-06-10T12:22:56.537Z,63.85
2019-06-10T12:23:56.954Z,64.98
2019-06-10T12:25:15.476Z,66.29
2019-06-10T12:25:54.599Z,66.66
2019-06-10T12:26:55.529Z,66.57
2019-06-10T12:27:55.262Z,65.53
2019-06-10T12:28:54.647Z,66.68
2019-06-10T12:29:55.097Z,67.08
2019-06-10T12:30:57.482Z,65.37
2019-06-10T12:31:56.137Z,69.37
2019-06-10T12:32:55.353Z,63.75
2019-06-10T12:33:55.343Z,66.59
2019-06-10T12:34:53.206Z,67.16
2019-06-10T12:35:57.595Z,66.35
2019-06-10T12:36:56.290Z,69.46
2019-06-10T12:37:55.052Z,66.25
2019-06-10T12:38:57.525Z,67.32
2019-06-10T12:39:55.051Z,65.44
2019-06-10T12:40:56.814Z,64.33
2019-06-10T12:41:55.144Z,67.01
2019-06-10T12:42:55.095Z,67.16
2019-06-10T12:43:54.460Z,68.43
2019-06-10T12:44:54.454Z,70.74
2019-06-10T12:45:54.310Z,70.46
2019-06-10T12:46:53.982Z,68.68
2019-06-10T12:47:55.016Z,64.76
2019-06-10T12:48:54.003Z,69.42
2019-06-10T12:49:54.188Z,68.74
2019-06-10T12:50:53.866Z,67.97
2019-06-10T12:51:54.208Z,72.40
2019-06-10T12:52:54.621Z,68.98
2019-06-10T12:53:53.262Z,65.04